createdAt,value
2017-05-21T00:00:41.057Z,0
2017-05-21T00:01:41.074Z,0
2017-05-21T00:02:41.091Z,0
2017-05-21T00:04:55.756Z,0
2017-05-21T00:05:56.085Z,0
2017-05-21T00:06:40.889Z,0
2017-05-21T00:08:41.251Z,0
2017-05-21T00:09:41.565Z,0
2017-05-21T00:10:41.269Z,0
2017-05-21T00:11:41.323Z,0
2017-05-21T00:12:41.630Z,0
2017-05-21T00:13:41.679Z,0
2017-05-21T00:14:41.691Z,0
2017-05-21T00:15:56.031Z,0
2017-05-21T00:16:41.745Z,0
2017-05-21T00:17:41.156Z,0
2017-05-21T00:18:41.177Z,0
2017-05-21T00:19:56.120Z,0
2017-05-21T00:20:56.438Z,0
2017-05-21T00:21:55.861Z,0
2017-05-21T00:22:41.558Z,0
2017-05-21T00:23:41.586Z,0
2017-05-21T00:24:41.611Z,0
2017-05-21T00:25:41.654Z,0
2017-05-21T00:26:41.962Z,0
2017-05-21T00:28:42.034Z,0
2017-05-21T00:29:56.657Z,0
2017-05-21T00:30:42.078Z,0
2017-05-21T00:31:42.076Z,0
2017-05-21T00:32:42.103Z,0
2017-05-21T00:33:41.824Z,0
2017-05-21T00:34:42.166Z,0
2017-05-21T00:35:41.261Z,0
2017-05-21T00:36:41.893Z,0
2017-05-21T00:37:56.531Z,0
2017-05-21T00:38:41.634Z,0
2017-05-21T00:39:56.883Z,0
2017-05-21T00:40:41.979Z,0
2017-05-21T00:41:42.022Z,0
2017-05-21T00:43:56.681Z,0
2017-05-21T00:44:42.399Z,0
2017-05-21T00:45:41.811Z,0
2017-05-21T00:46:42.135Z,0
2017-05-21T00:47:42.476Z,0
2017-05-21T00:48:41.879Z,0
2017-05-21T00:49:42.217Z,0
2017-05-21T00:50:42.524Z,0
2017-05-21T00:51:41.636Z,0
2017-05-21T00:52:57.188Z,0
2017-05-21T00:53:42.292Z,0
2017-05-21T00:54:42.331Z,0
2017-05-21T00:55:56.948Z,0
2017-05-21T00:56:42.691Z,0
2017-05-21T00:57:42.693Z,0
2017-05-21T00:58:57.040Z,0
2017-05-21T00:59:42.757Z,0
2017-05-21T01:00:41.855Z,0
2017-05-21T01:01:42.806Z,0
2017-05-21T01:02:42.844Z,0
2017-05-21T01:03:42.534Z,0
2017-05-21T01:04:42.853Z,0
2017-05-21T01:05:42.269Z,0
2017-05-21T01:06:57.522Z,0
2017-05-21T01:07:57.238Z,0
2017-05-21T01:08:57.563Z,0
2017-05-21T01:09:42.668Z,0
2017-05-21T01:10:42.702Z,0
2017-05-21T01:11:57.652Z,0
2017-05-21T01:12:42.755Z,0
2017-05-21T01:13:42.760Z,0
2017-05-21T01:14:42.785Z,0
2017-05-21T01:15:43.106Z,0
2017-05-21T01:16:42.831Z,0
2017-05-21T01:17:42.849Z,0
2017-05-21T01:18:42.879Z,0
2017-05-21T01:19:42.603Z,0
2017-05-21T01:20:42.925Z,0
2017-05-21T01:21:43.255Z,0
2017-05-21T01:22:43.259Z,0
2017-05-21T01:23:42.981Z,0
2017-05-21T01:24:57.948Z,0
2017-05-21T01:25:43.051Z,0
2017-05-21T01:26:43.073Z,0
2017-05-21T01:27:43.387Z,0
2017-05-21T01:28:58.030Z,0
2017-05-21T01:29:42.827Z,0
2017-05-21T01:30:43.161Z,0
2017-05-21T01:31:43.187Z,0
2017-05-21T01:32:43.209Z,0
2017-05-21T01:34:43.569Z,0
2017-05-21T01:36:58.214Z,0
2017-05-21T01:37:58.245Z,0
2017-05-21T01:38:43.350Z,0
2017-05-21T01:39:43.702Z,0
2017-05-21T01:40:58.307Z,0
2017-05-21T01:41:43.408Z,0
2017-05-21T01:42:43.737Z,0
2017-05-21T01:43:43.151Z,0
2017-05-21T01:44:43.792Z,0
2017-05-21T01:45:42.896Z,0
2017-05-21T01:46:58.152Z,0
2017-05-21T01:47:58.489Z,0
2017-05-21T01:48:43.283Z,0
2017-05-21T01:49:43.662Z,0
2017-05-21T01:50:43.628Z,0
2017-05-21T01:51:43.342Z,0
2017-05-21T01:53:58.610Z,0
2017-05-21T01:54:44.083Z,0
2017-05-21T01:55:58.647Z,0
2017-05-21T01:56:44.058Z,0
2017-05-21T01:57:44.099Z,0
2017-05-21T01:58:43.206Z,0
2017-05-21T01:59:43.835Z,0
2017-05-21T02:00:43.530Z,0
2017-05-21T02:01:43.857Z,0
2017-05-21T02:02:58.501Z,0
2017-05-21T02:03:58.521Z,0
2017-05-21T02:04:44.257Z,0
2017-05-21T02:05:44.283Z,0
2017-05-21T02:06:43.995Z,0
2017-05-21T02:08:44.053Z,0
2017-05-21T02:09:44.073Z,0
2017-05-21T02:10:44.089Z,0
2017-05-21T02:11:44.104Z,0
2017-05-21T02:12:44.427Z,0
2017-05-21T02:13:44.162Z,0
2017-05-21T02:14:44.207Z,0
2017-05-21T02:15:44.175Z,0
2017-05-21T02:16:43.903Z,0
2017-05-21T02:18:44.265Z,0
2017-05-21T02:19:44.618Z,0
2017-05-21T02:20:44.613Z,0
2017-05-21T02:21:44.659Z,0
2017-05-21T02:22:59.281Z,0
2017-05-21T02:23:44.710Z,0
2017-05-21T02:24:44.705Z,0
2017-05-21T02:25:44.710Z,0
2017-05-21T02:26:44.745Z,0
2017-05-21T02:27:59.404Z,0
2017-05-21T02:29:59.448Z,0
2017-05-21T02:30:59.461Z,0
2017-05-21T02:31:44.272Z,0
2017-05-21T02:32:44.592Z,0
2017-05-21T02:33:44.607Z,0
2017-05-21T02:34:59.240Z,0
2017-05-21T02:35:44.657Z,0
2017-05-21T02:36:44.680Z,0
2017-05-21T02:37:59.317Z,0
2017-05-21T02:38:45.024Z,0
2017-05-21T02:39:59.659Z,0
2017-05-21T02:40:44.466Z,0
2017-05-21T02:41:45.104Z,0
2017-05-21T02:42:44.507Z,0
2017-05-21T02:43:59.756Z,0
2017-05-21T02:44:44.868Z,0
2017-05-21T02:45:45.175Z,0
2017-05-21T02:46:45.203Z,0
2017-05-21T02:47:59.843Z,0
2017-05-21T02:48:45.266Z,0
2017-05-21T02:49:44.962Z,0
2017-05-21T02:50:59.924Z,0
2017-05-21T02:51:59.319Z,0
2017-05-21T02:52:59.966Z,0
2017-05-21T02:53:45.067Z,0
2017-05-21T02:54:45.092Z,0
2017-05-21T02:55:45.111Z,0
2017-05-21T02:56:45.166Z,0
2017-05-21T02:57:44.854Z,0
2017-05-21T02:58:45.176Z,5
2017-05-21T03:00:00.113Z,5
2017-05-21T03:00:45.528Z,5
2017-05-21T03:01:45.250Z,5
2017-05-21T03:02:45.585Z,5
2017-05-21T03:03:45.284Z,5
2017-05-21T03:04:45.311Z,5
2017-05-21T03:05:45.645Z,5
2017-05-21T03:07:00.272Z,5
2017-05-21T03:07:45.383Z,5
2017-05-21T03:08:45.409Z,5
2017-05-21T03:09:45.721Z,5
2017-05-21T03:10:45.461Z,10
2017-05-21T03:11:45.773Z,10
2017-05-21T03:12:44.894Z,10
2017-05-21T03:13:45.836Z,10
2017-05-21T03:14:45.857Z,10
2017-05-21T03:16:00.169Z,15
2017-05-21T03:16:45.574Z,15
2017-05-21T03:17:45.920Z,15
2017-05-21T03:19:45.960Z,20
2017-05-21T03:21:00.289Z,20
2017-05-21T03:21:45.994Z,20
2017-05-21T03:22:46.018Z,20
2017-05-21T03:23:46.064Z,25
2017-05-21T03:26:46.138Z,25
2017-05-21T03:27:46.138Z,30
2017-05-21T03:28:45.565Z,30
2017-05-21T03:29:46.190Z,30
2017-05-21T03:31:00.826Z,35
2017-05-21T03:31:46.232Z,35
2017-05-21T03:32:46.274Z,35
2017-05-21T03:33:46.271Z,35
2017-05-21T03:34:45.997Z,40
2017-05-21T03:36:00.627Z,40
2017-05-21T03:37:00.660Z,40
2017-05-21T03:37:46.065Z,45
2017-05-21T03:38:46.094Z,45
2017-05-21T03:39:46.404Z,45
2017-05-21T03:40:46.134Z,50
2017-05-21T03:41:46.154Z,50
2017-05-21T03:43:01.094Z,55
2017-05-21T03:43:46.287Z,55
2017-05-21T03:44:46.242Z,60
2017-05-21T03:45:46.545Z,65
2017-05-21T03:47:00.886Z,70
2017-05-21T03:48:46.004Z,80
2017-05-21T03:49:46.029Z,75
2017-05-21T03:50:46.073Z,65
2017-05-21T03:51:46.071Z,70
2017-05-21T03:53:01.326Z,75
2017-05-21T03:53:46.149Z,80
2017-05-21T03:55:01.380Z,85
2017-05-21T03:56:16.014Z,80
2017-05-21T03:56:46.819Z,75
2017-05-21T03:57:46.831Z,80
2017-05-21T03:58:46.856Z,85
2017-05-21T03:59:46.870Z,85
2017-05-21T04:00:46.907Z,90
2017-05-21T04:01:46.917Z,95
2017-05-21T04:03:46.954Z,110
2017-05-21T04:04:47.009Z,130
2017-05-21T04:05:46.422Z,135
2017-05-21T04:06:46.112Z,110
2017-05-21T04:07:47.062Z,100
2017-05-21T04:08:47.084Z,105
2017-05-21T04:09:46.796Z,105
2017-05-21T04:11:01.444Z,110
2017-05-21T04:11:47.160Z,115
2017-05-21T04:13:01.777Z,120
2017-05-21T04:13:47.211Z,120
2017-05-21T04:14:46.918Z,120
2017-05-21T04:15:46.925Z,120
2017-05-21T04:16:46.964Z,125
2017-05-21T04:19:01.921Z,125
2017-05-21T04:19:47.042Z,125
2017-05-21T04:20:47.348Z,130
2017-05-21T04:21:47.069Z,135
2017-05-21T04:23:01.709Z,130
2017-05-21T04:23:47.130Z,135
2017-05-21T04:24:47.466Z,135
2017-05-21T04:25:47.170Z,140
2017-05-21T04:26:46.890Z,140
2017-05-21T04:27:47.520Z,145
2017-05-21T04:28:47.331Z,145
2017-05-21T04:29:47.585Z,145
2017-05-21T04:30:46.987Z,150
2017-05-21T04:31:47.610Z,150
2017-05-21T04:32:47.639Z,155
2017-05-21T04:33:47.364Z,160
2017-05-21T04:35:02.311Z,160
2017-05-21T04:35:47.394Z,160
2017-05-21T04:36:47.732Z,160
2017-05-21T04:37:47.780Z,175
2017-05-21T04:38:47.781Z,280
2017-05-21T04:39:47.806Z,435
2017-05-21T04:40:47.835Z,575
2017-05-21T04:41:47.236Z,655
2017-05-21T04:42:47.886Z,695
2017-05-21T04:44:02.504Z,750
2017-05-21T04:44:47.614Z,760
2017-05-21T04:46:02.545Z,775
2017-05-21T04:46:47.673Z,775
2017-05-21T04:48:02.611Z,800
2017-05-21T04:48:47.727Z,810
2017-05-21T04:50:02.654Z,785
2017-05-21T04:51:02.684Z,785
2017-05-21T04:51:47.785Z,835
2017-05-21T04:53:02.435Z,870
2017-05-21T04:53:48.150Z,830
2017-05-21T04:54:48.174Z,825
2017-05-21T04:56:48.231Z,885
2017-05-21T04:57:48.269Z,875
2017-05-21T04:58:47.999Z,865
2017-05-21T04:59:48.321Z,885
2017-05-21T05:01:48.410Z,890
2017-05-21T05:02:48.086Z,900
2017-05-21T05:03:48.445Z,930
2017-05-21T05:04:48.145Z,940
2017-05-21T05:06:03.091Z,950
2017-05-21T05:06:48.200Z,920
2017-05-21T05:07:48.232Z,925
2017-05-21T05:09:48.621Z,960
2017-05-21T05:10:48.628Z,980
2017-05-21T05:11:48.670Z,975
2017-05-21T05:12:48.402Z,975
2017-05-21T05:14:48.447Z,1005
2017-05-21T05:16:03.085Z,1050
2017-05-21T05:16:48.186Z,1050
2017-05-21T05:17:48.548Z,1075
2017-05-21T05:19:03.192Z,1080
2017-05-21T05:19:48.296Z,1085
2017-05-21T05:20:48.325Z,1065
2017-05-21T05:21:48.374Z,1185
2017-05-21T05:22:48.694Z,1235
2017-05-21T05:24:48.754Z,1145
2017-05-21T05:26:03.722Z,1120
2017-05-21T05:26:48.523Z,1140
2017-05-21T05:27:48.863Z,1170
2017-05-21T05:29:03.822Z,1155
2017-05-21T05:30:49.263Z,1185
2017-05-21T05:31:48.671Z,1190
2017-05-21T05:32:49.341Z,1145
2017-05-21T05:33:49.367Z,1160
2017-05-21T05:34:49.386Z,1135
2017-05-21T05:36:04.041Z,1145
2017-05-21T05:36:48.857Z,1185
2017-05-21T05:38:48.928Z,1185
2017-05-21T05:39:49.577Z,1190
2017-05-21T05:40:49.596Z,1145
2017-05-21T05:42:04.241Z,1135
2017-05-21T05:42:49.367Z,1175
2017-05-21T05:43:49.706Z,1180
2017-05-21T05:44:49.748Z,1160
2017-05-21T05:45:49.776Z,1170
2017-05-21T05:46:49.786Z,1180
2017-05-21T05:47:49.529Z,1175
2017-05-21T05:49:04.487Z,1235
2017-05-21T05:49:49.602Z,1250
2017-05-21T05:51:04.549Z,1165
2017-05-21T05:51:49.680Z,1180
2017-05-21T05:52:49.711Z,1195
2017-05-21T05:54:04.677Z,1210
2017-05-21T05:54:50.065Z,1215
2017-05-21T05:55:50.107Z,1180
2017-05-21T05:56:50.202Z,1205
2017-05-21T05:57:50.186Z,1225
2017-05-21T05:58:50.230Z,1230
2017-05-21T06:00:04.578Z,1205
2017-05-21T06:00:49.995Z,1205
2017-05-21T06:01:50.325Z,1205
2017-05-21T06:03:50.121Z,1210
2017-05-21T06:04:50.420Z,1225
2017-05-21T06:06:19.752Z,1210
2017-05-21T06:06:50.505Z,1190
2017-05-21T06:07:49.634Z,1180
2017-05-21T06:08:50.596Z,1220
2017-05-21T06:10:05.228Z,1215
2017-05-21T06:12:05.308Z,1190
2017-05-21T06:12:50.405Z,1205
2017-05-21T06:13:50.744Z,1215
2017-05-21T06:15:05.412Z,1210
2017-05-21T06:15:50.512Z,1215
2017-05-21T06:16:50.865Z,1200
2017-05-21T06:17:50.274Z,1215
2017-05-21T06:18:50.934Z,1215
2017-05-21T06:19:50.958Z,1235
2017-05-21T06:20:50.698Z,1200
2017-05-21T06:21:50.748Z,1205
2017-05-21T06:22:50.783Z,1205
2017-05-21T06:23:50.796Z,1205
2017-05-21T06:24:51.135Z,1210
2017-05-21T06:26:05.798Z,1210
2017-05-21T06:26:51.234Z,1190
2017-05-21T06:28:05.253Z,1180
2017-05-21T06:29:05.904Z,1185
2017-05-21T06:29:51.018Z,1205
2017-05-21T06:30:51.062Z,1200
2017-05-21T06:31:51.096Z,1185
2017-05-21T06:33:05.756Z,1145
2017-05-21T06:35:05.815Z,1150
2017-05-21T06:35:50.326Z,1120
2017-05-21T06:36:50.974Z,1175
2017-05-21T06:38:06.228Z,1180
2017-05-21T06:38:51.049Z,1180
2017-05-21T06:40:06.002Z,1150
2017-05-21T06:41:06.355Z,1175
2017-05-21T06:41:50.855Z,1165
2017-05-21T06:42:51.481Z,1110
2017-05-21T06:44:06.450Z,1090
2017-05-21T06:44:51.250Z,1080
2017-05-21T06:46:06.212Z,1020
2017-05-21T06:46:51.927Z,1010
2017-05-21T06:47:51.678Z,1000
2017-05-21T06:48:52.018Z,985
2017-05-21T06:50:06.419Z,965
2017-05-21T06:50:51.793Z,960
2017-05-21T06:51:51.510Z,925
2017-05-21T06:52:51.856Z,875
2017-05-21T06:54:06.815Z,860
2017-05-21T06:54:52.249Z,850
2017-05-21T06:55:52.273Z,810
2017-05-21T06:56:51.998Z,780
2017-05-21T06:57:52.046Z,760
2017-05-21T06:58:52.083Z,715
2017-05-21T06:59:51.854Z,675
2017-05-21T07:00:51.858Z,675
2017-05-21T07:01:52.192Z,670
2017-05-21T07:02:51.608Z,650
2017-05-21T07:03:52.247Z,625
2017-05-21T07:04:52.591Z,615
2017-05-21T07:06:06.931Z,600
2017-05-21T07:06:52.669Z,610
2017-05-21T07:07:52.089Z,635
2017-05-21T07:08:52.132Z,670
2017-05-21T07:09:52.780Z,680
2017-05-21T07:10:52.202Z,675
2017-05-21T07:11:51.936Z,700
2017-05-21T07:13:07.507Z,830
2017-05-21T07:13:52.929Z,940
2017-05-21T07:14:52.360Z,1385
2017-05-21T07:16:07.629Z,1735
2017-05-21T07:16:52.420Z,1600
2017-05-21T07:18:07.399Z,1185
2017-05-21T07:18:53.110Z,1015
2017-05-21T07:20:53.164Z,1100
2017-05-21T07:21:52.902Z,1095
2017-05-21T07:22:52.940Z,1115
2017-05-21T07:23:52.682Z,1125
2017-05-21T07:25:08.244Z,1155
2017-05-21T07:25:53.367Z,1165
2017-05-21T07:26:52.784Z,1145
2017-05-21T07:27:53.129Z,1095
2017-05-21T07:29:08.088Z,1100
2017-05-21T07:29:53.198Z,1070
2017-05-21T07:30:53.540Z,1025
2017-05-21T07:31:53.281Z,1030
2017-05-21T07:33:07.925Z,1065
2017-05-21T07:33:53.350Z,1065
2017-05-21T07:36:08.356Z,980
2017-05-21T07:36:53.771Z,945
2017-05-21T07:37:53.501Z,955
2017-05-21T07:39:08.137Z,925
2017-05-21T07:39:53.572Z,940
2017-05-21T07:41:08.526Z,945
2017-05-21T07:42:08.545Z,925
2017-05-21T07:42:53.986Z,920
2017-05-21T07:43:53.726Z,950
2017-05-21T07:45:08.681Z,960
2017-05-21T07:45:53.491Z,935
2017-05-21T07:46:54.130Z,895
2017-05-21T07:47:53.863Z,895
2017-05-21T07:48:53.897Z,875
2017-05-21T07:49:53.943Z,870
2017-05-21T07:50:53.971Z,840
2017-05-21T07:51:53.689Z,840
2017-05-21T07:52:54.348Z,840
2017-05-21T07:53:54.067Z,810
2017-05-21T07:55:54.446Z,785
2017-05-21T07:57:08.805Z,790
2017-05-21T07:58:54.259Z,760
2017-05-21T07:59:54.289Z,755
2017-05-21T08:01:54.440Z,740
2017-05-21T08:02:54.395Z,740
2017-05-21T08:03:54.450Z,755
2017-05-21T08:04:54.482Z,750
2017-05-21T08:05:54.514Z,745
2017-05-21T08:06:54.558Z,730
2017-05-21T08:07:54.879Z,705
2017-05-21T08:08:54.935Z,695
2017-05-21T08:09:55.025Z,680
2017-05-21T08:10:54.381Z,665
2017-05-21T08:12:09.340Z,665
2017-05-21T08:12:54.841Z,650
2017-05-21T08:13:54.808Z,635
2017-05-21T08:14:54.531Z,615
2017-05-21T08:16:09.782Z,595
2017-05-21T08:17:09.825Z,605
2017-05-21T08:17:54.953Z,585
2017-05-21T08:18:54.988Z,565
2017-05-21T08:20:09.642Z,560
2017-05-21T08:20:54.434Z,555
2017-05-21T08:21:55.389Z,550
2017-05-21T08:24:55.190Z,540
2017-05-21T08:26:55.261Z,525
2017-05-21T08:28:09.917Z,520
2017-05-21T08:28:55.342Z,515
2017-05-21T08:29:55.691Z,510
2017-05-21T08:31:10.334Z,510
2017-05-21T08:31:55.761Z,505
2017-05-21T08:32:55.786Z,495
2017-05-21T08:33:55.525Z,495
2017-05-21T08:34:55.554Z,485
2017-05-21T08:36:55.310Z,480
2017-05-21T08:37:55.349Z,475
2017-05-21T08:38:55.689Z,475
2017-05-21T08:39:55.729Z,470
2017-05-21T08:40:55.768Z,470
2017-05-21T08:41:55.504Z,470
2017-05-21T08:43:10.446Z,475
2017-05-21T08:43:55.557Z,465
2017-05-21T08:44:55.606Z,465
2017-05-21T08:45:55.637Z,465
2017-05-21T08:46:55.659Z,460
2017-05-21T08:48:10.921Z,455
2017-05-21T08:48:56.358Z,460
2017-05-21T08:49:55.788Z,460
2017-05-21T08:50:56.116Z,455
2017-05-21T08:51:55.857Z,455
2017-05-21T08:53:10.798Z,455
2017-05-21T08:53:55.921Z,455
2017-05-21T08:55:10.876Z,450
2017-05-21T08:55:55.985Z,445
2017-05-21T08:56:56.627Z,440
2017-05-21T08:57:56.653Z,445
2017-05-21T08:58:56.393Z,440
2017-05-21T08:59:55.828Z,435
2017-05-21T09:00:56.778Z,430
2017-05-21T09:01:55.582Z,425
2017-05-21T09:02:56.543Z,420
2017-05-21T09:04:26.104Z,415
2017-05-21T09:04:56.591Z,415
2017-05-21T09:05:56.011Z,410
2017-05-21T09:06:56.367Z,390
2017-05-21T09:07:56.398Z,380
2017-05-21T09:09:11.355Z,360
2017-05-21T09:10:11.735Z,345
2017-05-21T09:10:57.102Z,340
2017-05-21T09:12:56.567Z,325
2017-05-21T09:13:56.622Z,330
2017-05-21T09:14:57.251Z,325
2017-05-21T09:15:57.345Z,325
2017-05-21T09:16:57.317Z,325
2017-05-21T09:17:56.753Z,325
2017-05-21T09:18:56.477Z,330
2017-05-21T09:21:11.159Z,315
2017-05-21T09:21:56.876Z,315
2017-05-21T09:23:11.846Z,320
2017-05-21T09:23:56.959Z,315
2017-05-21T09:24:57.601Z,320
2017-05-21T09:27:11.964Z,315
2017-05-21T09:28:11.714Z,315
2017-05-21T09:28:57.111Z,315
2017-05-21T09:31:12.123Z,180
2017-05-21T09:32:12.155Z,300
2017-05-21T09:32:56.964Z,300
2017-05-21T09:34:27.138Z,295
2017-05-21T09:34:57.924Z,290
2017-05-21T09:36:12.573Z,290
2017-05-21T09:36:57.702Z,290
2017-05-21T09:37:57.741Z,290
2017-05-21T09:38:58.077Z,290
2017-05-21T09:39:58.095Z,295
2017-05-21T09:40:57.513Z,295
2017-05-21T09:41:57.568Z,295
2017-05-21T09:42:57.585Z,295
2017-05-21T09:43:58.256Z,295
2017-05-21T09:44:57.061Z,295
2017-05-21T09:45:58.319Z,275
2017-05-21T09:47:58.088Z,140
2017-05-21T09:48:58.409Z,225
2017-05-21T09:49:58.146Z,300
2017-05-21T09:51:13.107Z,300
2017-05-21T09:52:12.825Z,295
2017-05-21T09:52:58.542Z,290
2017-05-21T09:53:58.283Z,290
2017-05-21T09:54:58.354Z,295
2017-05-21T09:55:58.646Z,295
2017-05-21T09:56:58.389Z,295
2017-05-21T09:57:58.712Z,295
2017-05-21T09:58:58.723Z,295
2017-05-21T09:59:58.767Z,290
2017-05-21T10:00:58.793Z,290
2017-05-21T10:01:58.837Z,290
2017-05-21T10:02:58.281Z,285
2017-05-21T10:03:58.600Z,290
2017-05-21T10:04:58.322Z,285
2017-05-21T10:05:58.369Z,285
2017-05-21T10:06:59.009Z,245
2017-05-21T10:07:58.743Z,135
2017-05-21T10:08:58.783Z,290
2017-05-21T10:09:59.102Z,150
2017-05-21T10:11:59.168Z,300
2017-05-21T10:12:58.895Z,300
2017-05-21T10:13:59.228Z,300
2017-05-21T10:14:58.958Z,300
2017-05-21T10:15:59.308Z,210
2017-05-21T10:16:59.320Z,265
2017-05-21T10:18:59.089Z,155
2017-05-21T10:19:58.829Z,155
2017-05-21T10:20:58.548Z,140
2017-05-21T10:21:58.869Z,140
2017-05-21T10:23:14.151Z,275
2017-05-21T10:23:59.258Z,275
2017-05-21T10:24:58.996Z,265
2017-05-21T10:25:59.319Z,265
2017-05-21T10:26:59.649Z,265
2017-05-21T10:28:14.293Z,265
2017-05-21T10:28:59.401Z,265
2017-05-21T10:30:59.180Z,275
2017-05-21T10:31:59.187Z,280
2017-05-21T10:32:59.225Z,285
2017-05-21T10:35:14.209Z,290
2017-05-21T10:36:14.542Z,180
2017-05-21T10:36:59.653Z,210
2017-05-21T10:37:59.390Z,300
2017-05-21T10:39:28.951Z,295
2017-05-21T10:39:59.444Z,295
2017-05-21T10:40:59.172Z,295
2017-05-21T10:42:14.744Z,295
2017-05-21T10:43:59.870Z,285
2017-05-21T10:45:14.832Z,275
2017-05-21T10:46:14.867Z,270
2017-05-21T10:46:59.366Z,265
2017-05-21T10:47:59.997Z,265
2017-05-21T10:49:00.108Z,260
2017-05-21T10:49:59.463Z,255
2017-05-21T10:50:59.790Z,250
2017-05-21T10:51:59.213Z,250
2017-05-21T10:53:00.472Z,250
2017-05-21T10:54:00.549Z,250
2017-05-21T10:55:15.139Z,250
2017-05-21T10:55:59.939Z,250
2017-05-21T10:57:00.603Z,250
2017-05-21T10:59:00.372Z,255
2017-05-21T11:00:00.376Z,255
2017-05-21T11:01:00.402Z,260
2017-05-21T11:02:00.426Z,260
2017-05-21T11:03:00.462Z,260
2017-05-21T11:04:15.108Z,260
2017-05-21T11:05:00.817Z,265
2017-05-21T11:06:00.548Z,260
2017-05-21T11:07:00.592Z,265
2017-05-21T11:08:00.616Z,260
2017-05-21T11:09:00.670Z,225
2017-05-21T11:11:15.326Z,175
2017-05-21T11:12:15.362Z,250
2017-05-21T11:13:00.772Z,245
2017-05-21T11:14:01.124Z,235
2017-05-21T11:15:15.448Z,235
2017-05-21T11:16:15.479Z,140
2017-05-21T11:17:00.593Z,165
2017-05-21T11:18:00.625Z,205
2017-05-21T11:19:15.271Z,225
2017-05-21T11:20:01.007Z,220
2017-05-21T11:21:01.318Z,225
2017-05-21T11:24:00.814Z,220
2017-05-21T11:25:01.463Z,220
2017-05-21T11:26:30.718Z,220
2017-05-21T11:27:01.511Z,215
2017-05-21T11:28:01.224Z,215
2017-05-21T11:29:01.257Z,220
2017-05-21T11:30:01.304Z,215
2017-05-21T11:31:15.623Z,215
2017-05-21T11:32:01.349Z,195
2017-05-21T11:33:01.387Z,160
2017-05-21T11:34:01.415Z,135
2017-05-21T11:35:01.773Z,160
2017-05-21T11:37:01.499Z,200
2017-05-21T11:38:01.535Z,200
2017-05-21T11:39:16.495Z,195
2017-05-21T11:40:01.282Z,200
2017-05-21T11:41:01.299Z,200
2017-05-21T11:42:01.652Z,200
2017-05-21T11:43:01.685Z,200
2017-05-21T11:44:01.696Z,205
2017-05-21T11:45:02.066Z,200
2017-05-21T11:46:01.465Z,205
2017-05-21T11:47:16.409Z,205
2017-05-21T11:48:01.514Z,205
2017-05-21T11:50:02.181Z,210
2017-05-21T11:51:01.603Z,220
2017-05-21T11:52:01.631Z,210
2017-05-21T11:53:02.285Z,150
2017-05-21T11:54:01.997Z,215
2017-05-21T11:55:01.717Z,195
2017-05-21T11:56:16.673Z,140
2017-05-21T11:57:01.793Z,140
2017-05-21T11:58:16.734Z,145
2017-05-21T11:59:02.154Z,180
2017-05-21T12:00:01.860Z,220
2017-05-21T12:01:02.210Z,215
2017-05-21T12:02:02.273Z,210
2017-05-21T12:03:02.265Z,205
2017-05-21T12:04:02.599Z,205
2017-05-21T12:05:17.032Z,205
2017-05-21T12:06:02.045Z,205
2017-05-21T12:07:02.674Z,200
2017-05-21T12:08:02.102Z,200
2017-05-21T12:09:02.443Z,195
2017-05-21T12:10:02.783Z,195
2017-05-21T12:11:01.891Z,195
2017-05-21T12:12:16.522Z,195
2017-05-21T12:13:02.259Z,195
2017-05-21T12:15:16.922Z,200
2017-05-21T12:16:02.645Z,170
2017-05-21T12:17:02.979Z,200
2017-05-21T12:18:02.383Z,160
2017-05-21T12:19:02.413Z,130
2017-05-21T12:20:02.154Z,135
2017-05-21T12:21:02.798Z,130
2017-05-21T12:22:02.833Z,130
2017-05-21T12:23:17.764Z,125
2017-05-21T12:24:02.878Z,120
2017-05-21T12:25:02.900Z,120
2017-05-21T12:26:02.927Z,120
2017-05-21T12:27:17.565Z,125
2017-05-21T12:28:17.299Z,130
2017-05-21T12:29:17.641Z,145
2017-05-21T12:30:17.984Z,185
2017-05-21T12:31:02.763Z,165
2017-05-21T12:33:02.856Z,215
2017-05-21T12:34:02.864Z,210
2017-05-21T12:35:02.587Z,200
2017-05-21T12:36:17.850Z,125
2017-05-21T12:37:03.557Z,125
2017-05-21T12:38:17.902Z,125
2017-05-21T12:39:03.312Z,145
2017-05-21T12:40:18.246Z,205
2017-05-21T12:41:03.673Z,205
2017-05-21T12:42:03.402Z,210
2017-05-21T12:43:03.736Z,220
2017-05-21T12:44:18.076Z,190
2017-05-21T12:45:03.545Z,205
2017-05-21T12:46:18.426Z,220
2017-05-21T12:47:03.853Z,215
2017-05-21T12:48:03.588Z,225
2017-05-21T12:49:03.594Z,220
2017-05-21T12:51:18.579Z,225
2017-05-21T12:52:03.993Z,220
2017-05-21T12:53:04.023Z,220
2017-05-21T12:54:04.030Z,220
2017-05-21T12:55:03.769Z,215
2017-05-21T12:56:03.497Z,210
2017-05-21T12:57:18.755Z,210
2017-05-21T12:58:03.865Z,215
2017-05-21T12:59:18.503Z,220
2017-05-21T13:00:03.303Z,220
2017-05-21T13:01:18.856Z,220
2017-05-21T13:02:03.661Z,225
2017-05-21T13:03:03.382Z,225
2017-05-21T13:04:03.422Z,225
2017-05-21T13:05:18.984Z,220
2017-05-21T13:06:04.093Z,220
2017-05-21T13:07:18.732Z,220
2017-05-21T13:08:03.845Z,185
2017-05-21T13:10:04.200Z,205
2017-05-21T13:11:03.930Z,150
2017-05-21T13:13:04.285Z,220
2017-05-21T13:14:04.314Z,220
2017-05-21T13:15:04.650Z,220
2017-05-21T13:16:19.303Z,215
2017-05-21T13:17:04.406Z,215
2017-05-21T13:18:04.117Z,215
2017-05-21T13:19:04.161Z,215
2017-05-21T13:21:04.841Z,215
2017-05-21T13:22:04.280Z,215
2017-05-21T13:23:04.882Z,215
2017-05-21T13:24:04.919Z,215
2017-05-21T13:25:04.340Z,215
2017-05-21T13:26:04.666Z,190
2017-05-21T13:27:19.306Z,140
2017-05-21T13:28:05.046Z,215
2017-05-21T13:29:05.086Z,220
2017-05-21T13:30:19.403Z,225
2017-05-21T13:31:04.819Z,220
2017-05-21T13:32:05.138Z,220
2017-05-21T13:33:19.805Z,225
2017-05-21T13:34:05.206Z,225
2017-05-21T13:35:04.923Z,225
2017-05-21T13:36:05.253Z,225
2017-05-21T13:37:05.304Z,225
2017-05-21T13:38:05.333Z,225
2017-05-21T13:39:05.104Z,225
2017-05-21T13:40:04.796Z,225
2017-05-21T13:41:05.107Z,225
2017-05-21T13:42:05.143Z,225
2017-05-21T13:43:05.169Z,225
2017-05-21T13:44:20.111Z,230
2017-05-21T13:45:05.522Z,225
2017-05-21T13:46:05.254Z,225
2017-05-21T13:47:05.278Z,230
2017-05-21T13:49:20.261Z,230
2017-05-21T13:50:05.368Z,230
2017-05-21T13:51:05.697Z,230
2017-05-21T13:52:05.129Z,230
2017-05-21T13:53:05.774Z,225
2017-05-21T13:54:05.809Z,225
2017-05-21T13:55:19.818Z,225
2017-05-21T13:56:05.916Z,230
2017-05-21T13:57:20.501Z,230
2017-05-21T13:58:35.127Z,235
2017-05-21T13:59:05.951Z,230
2017-05-21T14:00:20.569Z,225
2017-05-21T14:01:20.606Z,225
2017-05-21T14:02:06.020Z,225
2017-05-21T14:03:05.140Z,220
2017-05-21T14:04:05.486Z,220
2017-05-21T14:05:20.423Z,215
2017-05-21T14:06:05.530Z,215
2017-05-21T14:07:05.858Z,215
2017-05-21T14:08:05.594Z,210
2017-05-21T14:10:20.567Z,205
2017-05-21T14:11:06.292Z,205
2017-05-21T14:12:05.700Z,205
2017-05-21T14:13:05.741Z,175
2017-05-21T14:14:20.376Z,195
2017-05-21T14:15:05.506Z,145
2017-05-21T14:16:06.132Z,205
2017-05-21T14:17:06.484Z,135
2017-05-21T14:18:20.811Z,130
2017-05-21T14:19:06.532Z,125
2017-05-21T14:21:20.889Z,130
2017-05-21T14:22:05.997Z,190
2017-05-21T14:23:20.948Z,190
2017-05-21T14:24:06.361Z,190
2017-05-21T14:25:05.783Z,185
2017-05-21T14:26:06.118Z,180
2017-05-21T14:27:06.441Z,180
2017-05-21T14:28:06.180Z,180
2017-05-21T14:29:21.141Z,180
2017-05-21T14:30:06.542Z,180
2017-05-21T14:31:06.568Z,180
2017-05-21T14:32:06.355Z,175
2017-05-21T14:33:21.551Z,175
2017-05-21T14:35:06.388Z,180
2017-05-21T14:36:20.718Z,180
2017-05-21T14:37:07.059Z,110
2017-05-21T14:38:06.841Z,110
2017-05-21T14:39:06.494Z,145
2017-05-21T14:40:06.827Z,185
2017-05-21T14:41:06.852Z,185
2017-05-21T14:42:07.189Z,175
2017-05-21T14:43:06.603Z,150
2017-05-21T14:44:06.944Z,140
2017-05-21T14:45:06.351Z,165
2017-05-21T14:46:06.081Z,175
2017-05-21T14:47:06.130Z,125
2017-05-21T14:48:07.355Z,175
2017-05-21T14:50:07.414Z,170
2017-05-21T14:51:07.451Z,155
2017-05-21T14:52:06.864Z,165
2017-05-21T14:53:22.111Z,175
2017-05-21T14:54:07.534Z,175
2017-05-21T14:56:22.213Z,160
2017-05-21T14:58:07.322Z,170
2017-05-21T14:59:07.684Z,170
2017-05-21T15:01:22.352Z,170
2017-05-21T15:02:07.751Z,175